Time;durP1;ratioP1;P1;durP2;ratioP2;P2;SDS_P1;SDS_P2;PMS_P1;PMS_P2;Temp;Humidity;BMP_temperature;BMP_pressure;BME280_temperature;BME280_humidity;BME280_pressure;Samples;Min_cycle;Max_cycle;Signal;HPM_P1;HPM_P2
2024/02/06 00:02:16;;;;;;;3.90;2.10;;;;;;;2.65;100.00;99280.61;109553;1253;73069;-80
2024/02/06 00:04:44;;;;;;;4.50;2.00;;;;;;;2.69;100.00;99288.37;109311;1253;63559;-80
2024/02/06 00:07:11;;;;;;;5.00;2.10;;;;;;;2.72;100.00;99293.44;109611;1256;71447;-80
2024/02/06 00:09:54;;;;;;;4.50;1.90;;;;;;;2.76;100.00;99303.60;109551;1253;60986;-81
2024/02/06 00:12:22;;;;;;;4.20;2.90;;;;;;;2.76;100.00;99309.79;109428;1252;58594;-83
2024/02/06 00:14:52;;;;;;;4.90;1.60;;;;;;;2.76;100.00;99305.64;109407;1252;72578;-81
2024/02/06 00:17:20;;;;;;;4.00;1.80;;;;;;;2.79;100.00;99310.54;109686;1252;63389;-81
2024/02/06 00:19:47;;;;;;;2.40;1.60;;;;;;;2.81;100.00;99314.89;109542;1252;71432;-82
2024/02/06 00:22:15;;;;;;;2.80;1.70;;;;;;;2.82;100.00;99313.81;109536;1253;59554;-82
2024/02/06 00:24:43;;;;;;;2.20;1.40;;;;;;;2.83;100.00;99314.27;109631;1252;59898;-80
2024/02/06 00:27:11;;;;;;;2.70;1.40;;;;;;;2.85;100.00;99312.44;109603;1252;72541;-82
2024/02/06 00:29:38;;;;;;;3.00;1.10;;;;;;;2.85;100.00;99320.75;109613;1252;62438;-81
2024/02/06 00:32:06;;;;;;;3.40;1.50;;;;;;;2.83;100.00;99334.27;109335;1254;72465;-82
2024/02/06 00:34:34;;;;;;;4.60;1.60;;;;;;;2.82;100.00;99337.45;109674;1253;59622;-81
2024/02/06 00:37:01;;;;;;;1.30;0.90;;;;;;;2.80;100.00;99352.73;109590;1252;58783;-80
2024/02/06 00:39:31;;;;;;;2.90;1.50;;;;;;;2.79;100.00;99348.81;109742;1252;73945;-80
2024/02/06 00:41:59;;;;;;;6.30;1.10;;;;;;;2.77;100.00;99356.35;109453;1253;62988;-81
2024/02/06 00:44:27;;;;;;;2.60;1.10;;;;;;;2.75;100.00;99359.70;109563;1252;72655;-82
2024/02/06 00:46:55;;;;;;;2.20;1.20;;;;;;;2.73;100.00;99365.69;109577;1253;60942;-83
2024/02/06 00:49:22;;;;;;;3.00;1.30;;;;;;;2.70;100.00;99366.98;109646;1252;60085;-87
2024/02/06 00:51:50;;;;;;;1.50;1.30;;;;;;;2.70;100.00;99374.98;109538;1253;72623;-82
2024/02/06 00:54:19;;;;;;;3.80;0.90;;;;;;;2.67;100.00;99392.70;109662;1253;62426;-86
2024/02/06 00:56:47;;;;;;;1.20;0.60;;;;;;;2.64;100.00;99391.46;109518;1252;71343;-85
2024/02/06 00:59:15;;;;;;;2.10;1.40;;;;;;;2.65;100.00;99396.42;109596;1253;60934;-81
2024/02/06 01:01:42;;;;;;;6.00;1.00;;;;;;;2.62;100.00;99398.66;109636;1253;58418;-82
2024/02/06 01:04:10;;;;;;;4.10;1.20;;;;;;;2.58;100.00;99401.60;109598;1253;73852;-80
2024/02/06 01:06:37;;;;;;;3.60;1.00;;;;;;;2.54;100.00;99410.57;109589;1252;63795;-81
2024/02/06 01:09:05;;;;;;;2.80;0.90;;;;;;;2.53;100.00;99415.44;109390;1252;71092;-81
2024/02/06 01:11:33;;;;;;;1.80;0.50;;;;;;;2.52;100.00;99409.64;109598;1253;59836;-82
2024/02/06 01:14:00;;;;;;;2.10;0.90;;;;;;;2.49;100.00;99415.65;109600;1252;59555;-82
2024/02/06 01:16:28;;;;;;;1.10;0.60;;;;;;;2.47;100.00;99420.22;109606;1252;73854;-80
2024/02/06 01:18:56;;;;;;;4.90;1.20;;;;;;;2.46;100.00;99425.23;109621;1252;63523;-82
2024/02/06 01:21:25;;;;;;;4.90;1.00;;;;;;;2.46;100.00;99429.40;109600;1252;72462;-80
2024/02/06 01:23:52;;;;;;;3.10;1.30;;;;;;;2.45;100.00;99433.75;109364;1253;59732;-81
2024/02/06 01:26:20;;;;;;;3.40;1.10;;;;;;;2.44;100.00;99434.48;109665;1252;58799;-83
2024/02/06 01:28:48;;;;;;;1.90;0.70;;;;;;;2.43;100.00;99437.82;109392;1253;71729;-81
2024/02/06 01:31:17;;;;;;;2.50;1.00;;;;;;;2.39;100.00;99442.29;109415;1253;62583;-85
2024/02/06 01:33:44;;;;;;;5.60;0.80;;;;;;;2.35;100.00;99452.16;109363;1254;71391;-83
2024/02/06 01:36:17;;;;;;;2.70;1.30;;;;;;;2.34;100.00;99456.35;109561;1252;59712;-81
2024/02/06 01:38:44;;;;;;;4.50;0.70;;;;;;;2.32;100.00;99464.68;109615;1253;58837;-81
2024/02/06 01:45:53;;;;;;;2.80;0.60;;;;;;;2.21;100.00;99481.06;102516;1294;603548;-85
2024/02/06 01:48:21;;;;;;;2.80;0.60;;;;;;;2.17;100.00;99487.58;105097;1266;60844;-81
2024/02/06 01:50:48;;;;;;;1.80;0.80;;;;;;;2.11;100.00;99488.56;106348;1266;60289;-83
2024/02/06 01:53:15;;;;;;;2.90;0.70;;;;;;;2.03;100.00;99494.21;104934;1266;70752;-81
2024/02/06 01:55:42;;;;;;;4.80;1.50;;;;;;;1.99;100.00;99502.02;105102;1270;63766;-84
2024/02/06 01:58:08;;;;;;;2.20;0.80;;;;;;;1.94;100.00;99509.98;104986;1269;210082;-79
2024/02/06 02:00:38;;;;;;;5.40;2.20;;;;;;;1.89;100.00;99511.23;105120;1267;61220;-82
2024/02/06 02:03:06;;;;;;;1.70;0.80;;;;;;;1.85;100.00;99529.63;105139;1263;60239;-81
2024/02/06 02:05:33;;;;;;;5.30;1.30;;;;;;;1.81;100.00;99534.78;105790;1256;72211;-83
2024/02/06 02:08:00;;;;;;;2.10;0.70;;;;;;;1.79;100.00;99543.34;105567;1259;63736;-83
2024/02/06 02:10:27;;;;;;;2.00;0.80;;;;;;;1.76;100.00;99549.48;105649;1259;70501;-83
2024/02/06 02:12:55;;;;;;;4.70;1.10;;;;;;;1.75;100.00;99545.41;105598;1254;61258;-84
2024/02/06 02:15:22;;;;;;;2.90;1.90;;;;;;;1.72;100.00;99543.96;105691;1254;61541;-82
2024/02/06 02:17:50;;;;;;;1.70;0.70;;;;;;;1.75;100.00;99549.73;105613;1254;73137;-83
2024/02/06 02:20:17;;;;;;;2.60;0.90;;;;;;;1.76;100.00;99552.95;105556;1255;63016;-79
2024/02/06 02:22:45;;;;;;;3.60;0.70;;;;;;;1.78;100.00;99553.88;105702;1256;72751;-81
2024/02/06 02:25:11;;;;;;;3.50;0.50;;;;;;;1.81;100.00;99551.17;105603;1259;60925;-81
2024/02/06 02:27:38;;;;;;;1.40;0.60;;;;;;;1.83;100.00;99551.94;105826;1262;59599;-80
2024/02/06 02:30:06;;;;;;;1.10;0.50;;;;;;;1.84;100.00;99553.27;105764;1254;73274;-82
2024/02/06 02:32:33;;;;;;;2.70;0.60;;;;;;;1.84;100.00;99555.67;105853;1259;64002;-80
2024/02/06 02:35:00;;;;;;;4.30;1.20;;;;;;;1.86;100.00;99559.56;105888;1256;71449;-78
2024/02/06 02:37:26;;;;;;;2.00;0.60;;;;;;;1.86;100.00;99567.34;107164;1259;61096;-78
2024/02/06 02:39:54;;;;;;;2.30;0.70;;;;;;;1.84;100.00;99567.05;106061;1259;59670;-80
2024/02/06 02:42:21;;;;;;;1.80;0.90;;;;;;;1.83;100.00;99567.98;105841;1254;71829;-81
2024/02/06 02:44:49;;;;;;;2.30;0.80;;;;;;;1.83;100.00;99575.89;105779;1258;63701;-80
2024/02/06 02:47:16;;;;;;;1.90;1.00;;;;;;;1.84;100.00;99579.11;105724;1259;71732;-81
2024/02/06 02:49:43;;;;;;;2.10;1.30;;;;;;;1.84;100.00;99571.88;105712;1256;59843;-80
2024/02/06 02:52:09;;;;;;;4.40;1.00;;;;;;;1.82;100.00;99568.71;105702;1259;59618;-82
2024/02/06 02:54:36;;;;;;;4.30;3.00;;;;;;;1.79;100.00;99573.15;105741;1256;71909;-81
2024/02/06 02:57:04;;;;;;;4.40;1.80;;;;;;;1.76;100.00;99581.71;105589;1255;62486;-84
2024/02/06 02:59:32;;;;;;;3.60;1.20;;;;;;;1.73;100.00;99579.05;105635;1257;72695;-81
2024/02/06 03:01:58;;;;;;;2.20;1.00;;;;;;;1.74;100.00;99577.46;106879;1258;59752;-82
2024/02/06 03:04:26;;;;;;;3.00;0.70;;;;;;;1.77;100.00;99580.46;105720;1258;60012;-82
2024/02/06 03:06:53;;;;;;;2.60;0.90;;;;;;;1.77;100.00;99595.95;105762;1259;72886;-81
2024/02/06 03:09:20;;;;;;;2.80;1.20;;;;;;;1.74;100.00;99603.13;105679;1259;63914;-82
2024/02/06 03:11:47;;;;;;;3.40;1.00;;;;;;;1.74;100.00;99608.50;105689;1253;71120;-81
2024/02/06 03:14:15;;;;;;;2.00;0.70;;;;;;;1.75;100.00;99616.92;105730;1259;61222;-83
2024/02/06 03:16:42;;;;;;;1.20;0.60;;;;;;;1.74;100.00;99618.48;106087;1256;60155;-81
2024/02/06 03:19:09;;;;;;;5.70;0.90;;;;;;;1.74;100.00;99623.31;106186;1253;71608;-82
2024/02/06 03:21:36;;;;;;;4.20;1.10;;;;;;;1.76;100.00;99625.80;105765;1256;64305;-83
2024/02/06 03:24:04;;;;;;;1.40;0.60;;;;;;;1.80;100.00;99620.83;105793;1253;71294;-83
2024/02/06 03:26:31;;;;;;;1.40;0.60;;;;;;;1.82;100.00;99627.48;105774;1253;59752;-82
2024/02/06 03:28:58;;;;;;;4.10;1.20;;;;;;;1.83;100.00;99629.84;105793;1256;59771;-81
2024/02/06 03:31:25;;;;;;;7.70;1.70;;;;;;;1.84;100.00;99625.98;105771;1256;72923;-84
2024/02/06 03:33:52;;;;;;;4.40;2.70;;;;;;;1.86;100.00;99634.71;105776;1256;63852;-83
2024/02/06 03:36:21;;;;;;;5.20;3.50;;;;;;;1.88;100.00;99637.42;105904;1254;72442;-82
2024/02/06 03:38:49;;;;;;;14.40;6.30;;;;;;;1.90;100.00;99640.27;105864;1255;59709;-82
2024/02/06 03:41:15;;;;;;;23.00;10.10;;;;;;;1.93;100.00;99643.41;105840;1251;59632;-83
2024/02/06 03:43:43;;;;;;;22.10;10.90;;;;;;;1.96;100.00;99647.07;105876;1251;72903;-82
2024/02/06 03:46:11;;;;;;;18.20;9.70;;;;;;;1.98;100.00;99653.88;105866;1251;62872;-81
2024/02/06 03:48:38;;;;;;;18.70;11.10;;;;;;;2.02;100.00;99659.23;106118;1255;71454;-80
2024/02/06 03:51:05;;;;;;;18.30;6.80;;;;;;;2.06;100.00;99657.85;105971;1251;60537;-81
2024/02/06 03:53:32;;;;;;;13.70;5.70;;;;;;;2.11;100.00;99654.41;105852;1255;60149;-82
2024/02/06 03:55:59;;;;;;;9.70;5.70;;;;;;;2.13;100.00;99654.48;105860;1255;74043;-77
2024/02/06 03:58:26;;;;;;;11.80;6.90;;;;;;;2.16;100.00;99659.71;105784;1256;63572;-82
2024/02/06 04:00:55;;;;;;;15.10;7.60;;;;;;;2.16;100.00;99660.59;105885;1251;72494;-80
2024/02/06 04:03:22;;;;;;;13.50;7.40;;;;;;;2.15;100.00;99667.18;105794;1258;59854;-81
2024/02/06 04:05:49;;;;;;;11.50;6.60;;;;;;;2.14;100.00;99664.77;106489;1251;59644;-80
2024/02/06 04:08:17;;;;;;;12.40;6.80;;;;;;;2.12;100.00;99667.13;108477;1255;71800;-79
2024/02/06 04:10:44;;;;;;;11.80;7.40;;;;;;;2.10;100.00;99668.41;106541;1256;63886;-78
2024/02/06 04:13:11;;;;;;;12.20;7.20;;;;;;;2.07;100.00;99664.89;106791;1265;73200;-79
2024/02/06 04:15:38;;;;;;;15.90;7.50;;;;;;;2.05;100.00;99660.34;108005;1253;59222;-79
2024/02/06 04:20:34;;;;;;;13.20;7.10;;;;;;;2.06;100.00;99653.38;103774;1290;599536;-79
2024/02/06 04:23:02;;;;;;;13.30;7.70;;;;;;;2.04;100.00;99656.73;105348;1266;59846;-80
2024/02/06 04:25:29;;;;;;;8.10;5.10;;;;;;;2.05;100.00;99662.21;105777;1264;59385;-79
2024/02/06 04:27:57;;;;;;;8.10;5.00;;;;;;;2.04;100.00;99667.96;105661;1266;70705;-78
2024/02/06 04:30:25;;;;;;;9.10;4.10;;;;;;;2.03;100.00;99674.20;106259;1255;62428;-80
2024/02/06 04:32:53;;;;;;;7.20;2.90;;;;;;;2.03;100.00;99679.90;105970;1259;72862;-79
2024/02/06 04:35:21;;;;;;;5.90;2.50;;;;;;;2.02;100.00;99687.00;106139;1253;213777;-78
2024/02/06 04:37:48;;;;;;;5.50;2.70;;;;;;;2.00;100.00;99687.94;106259;1251;59302;-80
2024/02/06 04:40:17;;;;;;;7.30;2.90;;;;;;;1.98;100.00;99694.05;106351;1253;72508;-81
2024/02/06 04:42:48;;;;;;;4.40;1.50;;;;;;;1.98;100.00;99697.32;106426;1250;62388;-82
2024/02/06 04:45:16;;;;;;;3.70;1.90;;;;;;;1.99;100.00;99697.48;106019;1256;72486;-81
2024/02/06 04:47:43;;;;;;;8.50;2.90;;;;;;;1.99;100.00;99699.70;106490;1256;61136;-81
2024/02/06 04:50:11;;;;;;;8.50;4.30;;;;;;;2.01;100.00;99694.80;106044;1257;59715;-81
2024/02/06 04:52:38;;;;;;;8.20;5.30;;;;;;;2.02;100.00;99699.77;105967;1252;73056;-79
2024/02/06 04:55:09;;;;;;;11.60;5.10;;;;;;;2.00;100.00;99699.66;105907;1253;62460;-81
2024/02/06 04:57:38;;;;;;;11.50;5.90;;;;;;;1.98;100.00;99702.86;105924;1256;72670;-81
2024/02/06 05:00:12;;;;;;;18.00;7.60;;;;;;;1.96;100.00;99703.29;105984;1255;60830;-81
2024/02/06 05:02:40;;;;;;;13.10;5.90;;;;;;;1.94;100.00;99703.88;105894;1256;59620;-81
2024/02/06 05:05:09;;;;;;;12.60;6.60;;;;;;;1.93;100.00;99699.40;105929;1251;71831;-80
2024/02/06 05:07:37;;;;;;;14.00;6.30;;;;;;;1.90;100.00;99707.64;105928;1253;62584;-82
2024/02/06 05:10:05;;;;;;;11.20;6.80;;;;;;;1.86;100.00;99711.06;105928;1252;72673;-81
2024/02/06 05:12:32;;;;;;;15.00;6.60;;;;;;;1.84;100.00;99708.36;106057;1251;59821;-83
2024/02/06 05:15:00;;;;;;;20.20;7.90;;;;;;;1.85;100.00;99710.08;109665;1250;59619;-80
2024/02/06 05:17:28;;;;;;;16.10;8.70;;;;;;;1.85;100.00;99715.40;109720;1250;73452;-82
2024/02/06 05:19:56;;;;;;;19.50;9.80;;;;;;;1.88;100.00;99715.48;109688;1250;62407;-80
2024/02/06 05:22:24;;;;;;;21.60;11.10;;;;;;;1.91;100.00;99714.67;109687;1250;71305;-83
2024/02/06 05:24:52;;;;;;;22.80;12.10;;;;;;;1.93;100.00;99716.65;109636;1250;59685;-82
2024/02/06 05:27:19;;;;;;;26.80;14.30;;;;;;;1.93;100.00;99720.79;109702;1250;59178;-81
2024/02/06 05:29:47;;;;;;;32.10;17.80;;;;;;;1.93;100.00;99723.53;109644;1255;73061;-83
2024/02/06 05:32:15;;;;;;;31.90;20.60;;;;;;;1.95;100.00;99726.74;109662;1256;62279;-83
2024/02/06 05:34:43;;;;;;;41.40;22.40;;;;;;;1.96;100.00;99732.08;109597;1251;71990;-84
2024/02/06 05:37:10;;;;;;;41.00;19.30;;;;;;;1.97;100.00;99738.37;109508;1252;60048;-83
2024/02/06 05:39:38;;;;;;;42.10;19.80;;;;;;;1.99;100.00;99739.34;109710;1251;60009;-83
2024/02/06 05:42:08;;;;;;;41.40;19.40;;;;;;;2.02;100.00;99738.01;109659;1256;71655;-83
2024/02/06 05:44:35;;;;;;;30.40;14.30;;;;;;;2.09;100.00;99737.77;109694;1251;62325;-82
2024/02/06 05:47:03;;;;;;;31.20;14.10;;;;;;;2.13;100.00;99735.72;109552;1250;72483;-82
2024/02/06 05:49:32;;;;;;;20.20;9.50;;;;;;;2.15;100.00;99738.23;109682;1251;60863;-81
2024/02/06 05:52:01;;;;;;;22.30;9.30;;;;;;;2.18;100.00;99732.55;109591;1253;59303;-84
2024/02/06 05:54:28;;;;;;;18.90;9.00;;;;;;;2.21;100.00;99733.14;109676;1251;71636;-83
2024/02/06 05:56:57;;;;;;;18.20;6.70;;;;;;;2.23;100.00;99730.47;109679;1250;62412;-83
2024/02/06 05:59:25;;;;;;;14.40;5.70;;;;;;;2.23;100.00;99737.20;109655;1251;71838;-83
2024/02/06 06:01:52;;;;;;;13.10;4.60;;;;;;;2.26;100.00;99729.34;109619;1251;60922;-83
2024/02/06 06:04:20;;;;;;;9.70;4.70;;;;;;;2.33;100.00;99733.55;109689;1250;60136;-82
2024/02/06 06:06:48;;;;;;;9.70;3.10;;;;;;;2.39;100.00;99723.98;109610;1251;71801;-82
2024/02/06 06:09:16;;;;;;;7.80;2.70;;;;;;;2.44;100.00;99721.86;109687;1251;62276;-81
2024/02/06 06:11:43;;;;;;;6.80;2.30;;;;;;;2.51;100.00;99729.01;109636;1251;71460;-83
2024/02/06 06:14:11;;;;;;;9.50;2.90;;;;;;;2.57;100.00;99740.47;109678;1254;61197;-83
2024/02/06 06:16:40;;;;;;;6.30;2.20;;;;;;;2.61;100.00;99744.79;109754;1251;59975;-84
2024/02/06 06:19:07;;;;;;;6.90;3.00;;;;;;;2.64;100.00;99744.16;109622;1253;72653;-82
2024/02/06 06:21:35;;;;;;;9.70;3.80;;;;;;;2.69;100.00;99746.88;109629;1251;64473;-83
2024/02/06 06:24:05;;;;;;;7.50;3.10;;;;;;;2.77;100.00;99750.69;109507;1253;71555;-84
2024/02/06 06:26:37;;;;;;;7.50;3.30;;;;;;;2.85;100.00;99754.51;109566;1253;59624;-83
2024/02/06 06:29:05;;;;;;;12.00;3.70;;;;;;;2.93;100.00;99755.72;109704;1251;58813;-82
2024/02/06 06:31:33;;;;;;;6.00;2.30;;;;;;;3.01;100.00;99757.81;109612;1254;73362;-81
2024/02/06 06:34:00;;;;;;;5.00;3.40;;;;;;;3.05;100.00;99759.88;109699;1251;61493;-83
2024/02/06 06:36:28;;;;;;;5.40;2.60;;;;;;;3.07;100.00;99764.80;109679;1253;71130;-82
2024/02/06 06:38:58;;;;;;;5.90;2.80;;;;;;;3.09;100.00;99762.46;109611;1251;62363;-83
2024/02/06 06:41:26;;;;;;;8.00;2.30;;;;;;;3.09;100.00;99767.44;109685;1251;58957;-84
2024/02/06 06:43:54;;;;;;;9.60;3.70;;;;;;;3.09;100.00;99773.84;109658;1251;72088;-82
2024/02/06 06:46:21;;;;;;;5.90;2.80;;;;;;;3.13;100.00;99773.02;109712;1253;62474;-83
2024/02/06 06:48:49;;;;;;;7.10;3.30;;;;;;;3.19;100.00;99772.39;109730;1251;70446;-82
2024/02/06 06:51:17;;;;;;;4.10;2.80;;;;;;;3.25;100.00;99780.79;109622;1253;61079;-83
2024/02/06 06:53:44;;;;;;;6.60;2.60;;;;;;;3.34;100.00;99782.09;109401;1251;60166;-81
2024/02/06 06:56:16;;;;;;;10.00;4.10;;;;;;;3.47;100.00;99780.13;109701;1253;73289;-82
2024/02/06 06:58:44;;;;;;;11.30;5.20;;;;;;;3.60;100.00;99776.98;109670;1251;62488;-82
2024/02/06 07:01:12;;;;;;;16.10;4.00;;;;;;;3.67;100.00;99778.22;109642;1251;72660;-85
2024/02/06 07:03:40;;;;;;;9.50;3.70;;;;;;;3.70;100.00;99779.96;109701;1251;60087;-83
2024/02/06 07:06:08;;;;;;;11.70;3.50;;;;;;;3.75;100.00;99774.91;109427;1252;62145;-81
2024/02/06 07:08:38;;;;;;;8.70;4.20;;;;;;;3.83;100.00;99779.56;109695;1251;72030;-82
2024/02/06 07:11:06;;;;;;;11.90;5.00;;;;;;;3.92;100.00;99784.87;109603;1253;64232;-82
2024/02/06 07:13:33;;;;;;;13.00;5.20;;;;;;;4.00;100.00;99785.15;109586;1252;70961;-82
2024/02/06 07:16:01;;;;;;;8.10;5.40;;;;;;;4.12;100.00;99786.02;109621;1253;60966;-81
2024/02/06 07:18:29;;;;;;;11.80;4.50;;;;;;;4.21;100.00;99787.48;109675;1251;58747;-82
2024/02/06 07:20:57;;;;;;;7.90;4.40;;;;;;;4.31;100.00;99785.64;109550;1251;72898;-81
2024/02/06 07:23:24;;;;;;;12.80;4.70;;;;;;;4.41;100.00;99783.77;109703;1251;64244;-83
2024/02/06 07:25:51;;;;;;;10.40;4.20;;;;;;;4.49;100.00;99791.70;109639;1253;71345;-81
2024/02/06 07:28:19;;;;;;;8.60;3.40;;;;;;;4.56;100.00;99793.80;109648;1251;59568;-84
2024/02/06 07:30:48;;;;;;;15.20;5.40;;;;;;;4.60;100.00;99787.02;109621;1251;61266;-83
2024/02/06 07:33:15;;;;;;;4.70;2.70;;;;;;;4.67;100.00;99789.60;109629;1251;71651;-82
2024/02/06 07:35:43;;;;;;;9.60;3.50;;;;;;;4.78;100.00;99793.56;109630;1250;62820;-86
2024/02/06 07:38:11;;;;;;;8.70;3.90;;;;;;;4.86;100.00;99797.15;109619;1250;73478;-85
2024/02/06 07:40:38;;;;;;;17.00;3.90;;;;;;;4.94;100.00;99799.23;109649;1251;60978;-82
2024/02/06 07:43:06;;;;;;;8.30;3.60;;;;;;;4.96;100.00;99796.69;109717;1255;58489;-81
2024/02/06 07:45:34;;;;;;;6.50;3.50;;;;;;;4.95;100.00;99797.39;109750;1250;71673;-81
2024/02/06 07:48:02;;;;;;;7.40;4.00;;;;;;;4.95;100.00;99797.23;109719;1250;62333;-82
2024/02/06 07:50:29;;;;;;;10.90;3.50;;;;;;;4.95;100.00;99786.52;109665;1250;71701;-80
2024/02/06 07:52:57;;;;;;;6.90;3.80;;;;;;;4.95;100.00;99782.50;109665;1250;59779;-80
2024/02/06 07:55:27;;;;;;;9.30;4.80;;;;;;;5.02;100.00;99785.29;109737;1250;60584;-82
2024/02/06 07:57:54;;;;;;;8.80;4.10;;;;;;;5.08;100.00;99796.94;109649;1250;71656;-82
2024/02/06 08:00:22;;;;;;;9.40;3.50;;;;;;;5.16;100.00;99807.61;109665;1250;62593;-81
2024/02/06 08:02:50;;;;;;;12.80;4.70;;;;;;;5.25;100.00;99810.30;109758;1250;71044;-82
2024/02/06 08:05:18;;;;;;;13.60;5.70;;;;;;;5.32;100.00;99805.25;109656;1251;58886;-81
2024/02/06 08:07:46;;;;;;;16.50;5.50;;;;;;;5.40;100.00;99801.03;109650;1255;60020;-81
2024/02/06 08:10:14;;;;;;;21.70;7.40;;;;;;;5.53;100.00;99802.27;109522;1250;71437;-80
2024/02/06 08:12:42;;;;;;;18.90;8.60;;;;;;;5.60;100.00;99798.76;109489;1250;63051;-81
2024/02/06 08:15:10;;;;;;;13.80;7.10;;;;;;;5.60;100.00;99807.94;109717;1251;73103;-81
2024/02/06 08:17:42;;;;;;;9.20;5.20;;;;;;;5.54;100.00;99814.84;109590;1254;60855;-83
2024/02/06 08:20:10;;;;;;;7.00;3.10;;;;;;;5.45;100.00;99823.45;109644;1251;58769;-83
2024/02/06 08:22:43;;;;;;;6.30;3.10;;;;;;;5.34;100.00;99819.37;109656;1250;73482;-83
2024/02/06 08:25:11;;;;;;;10.90;5.30;;;;;;;5.27;100.00;99814.88;109694;1250;62332;-81
2024/02/06 08:27:40;;;;;;;11.10;3.60;;;;;;;5.23;100.00;99807.80;109758;1250;72317;-83
2024/02/06 08:30:09;;;;;;;9.20;2.40;;;;;;;5.22;100.00;99810.83;109462;1251;59284;-82
2024/02/06 08:32:37;;;;;;;8.90;2.20;;;;;;;5.22;100.00;99812.70;109621;1251;60349;-81
2024/02/06 08:35:06;;;;;;;4.70;1.80;;;;;;;5.28;100.00;99824.20;109684;1250;73022;-82
2024/02/06 08:37:34;;;;;;;2.70;1.60;;;;;;;5.37;100.00;99826.29;109631;1250;62401;-83
2024/02/06 08:40:07;;;;;;;4.70;1.50;;;;;;;5.50;100.00;99825.48;109704;1251;70990;-81
2024/02/06 08:43:11;;;;;;;3.30;1.60;;;;;;;5.68;99.99;99830.77;109555;1251;60383;-81
2024/02/06 08:45:45;;;;;;;1.60;0.70;;;;;;;5.81;99.88;99829.54;109667;1253;60329;-82
2024/02/06 08:48:15;;;;;;;3.70;1.30;;;;;;;5.93;99.78;99837.11;109562;1250;74470;-79
2024/02/06 08:50:49;;;;;;;2.80;1.50;;;;;;;6.00;97.90;99837.63;109661;1251;63828;-81
2024/02/06 08:53:18;;;;;;;3.70;1.40;;;;;;;6.09;95.31;99840.93;109718;1251;74548;-79
2024/02/06 08:55:46;;;;;;;4.20;1.20;;;;;;;6.21;90.82;99838.75;109711;1251;60148;-82
2024/02/06 08:58:14;;;;;;;3.00;1.70;;;;;;;6.35;88.64;99844.06;109653;1251;61357;-82
2024/02/06 09:00:42;;;;;;;2.60;1.30;;;;;;;6.46;88.87;99843.27;109634;1252;72232;-81
2024/02/06 09:03:10;;;;;;;5.50;3.10;;;;;;;6.59;88.38;99842.53;109694;1251;62508;-82
2024/02/06 09:05:38;;;;;;;8.90;3.60;;;;;;;6.72;87.00;99849.45;109741;1251;72183;-78
2024/02/06 09:08:07;;;;;;;7.20;3.20;;;;;;;6.83;86.50;99842.91;109634;1251;59568;-78
2024/02/06 09:10:34;;;;;;;5.40;3.10;;;;;;;6.93;84.30;99835.22;109796;1250;58596;-78
2024/02/06 09:13:03;;;;;;;5.20;3.40;;;;;;;6.99;86.10;99835.41;109648;1251;74068;-81
2024/02/06 09:15:31;;;;;;;7.30;2.40;;;;;;;7.06;88.28;99822.46;109647;1250;65038;-82
2024/02/06 09:18:00;;;;;;;7.80;2.40;;;;;;;7.16;89.10;99822.96;109610;1255;74944;-81
2024/02/06 09:20:28;;;;;;;5.30;1.70;;;;;;;7.21;89.25;99820.05;109601;1254;59623;-80
2024/02/06 09:23:03;;;;;;;3.10;1.60;;;;;;;7.27;89.49;99821.98;109660;1250;59926;-81
2024/02/06 09:25:31;;;;;;;3.40;1.60;;;;;;;7.31;85.76;99817.41;109654;1251;74740;-82
2024/02/06 09:27:59;;;;;;;5.60;2.70;;;;;;;7.30;84.84;99815.02;109671;1251;62784;-79
2024/02/06 09:30:27;;;;;;;5.40;2.40;;;;;;;7.34;85.77;99814.58;109654;1251;72053;-80
2024/02/06 09:32:57;;;;;;;5.70;2.00;;;;;;;7.40;85.25;99809.20;109614;1252;58181;-81
2024/02/06 09:35:25;;;;;;;3.70;1.60;;;;;;;7.45;86.16;99808.73;109636;1251;60473;-81
2024/02/06 09:37:59;;;;;;;6.10;2.20;;;;;;;7.59;87.16;99809.09;109674;1250;74940;-82
2024/02/06 09:40:41;;;;;;;4.50;1.90;;;;;;;7.73;84.13;99814.15;109625;1251;63714;-81
2024/02/06 09:43:15;;;;;;;7.10;2.40;;;;;;;7.79;81.55;99816.89;109647;1251;74572;-82
2024/02/06 09:45:44;;;;;;;6.50;2.30;;;;;;;7.80;80.21;99815.63;109624;1250;59798;-82
2024/02/06 09:48:24;;;;;;;3.40;1.60;;;;;;;7.79;80.34;99815.03;109676;1251;61861;-82
2024/02/06 09:50:53;;;;;;;4.30;1.40;;;;;;;7.77;78.99;99811.48;109673;1250;73373;-81
2024/02/06 09:53:23;;;;;;;3.90;1.00;;;;;;;7.75;76.77;99815.43;109704;1250;62934;-81
2024/02/06 09:55:50;;;;;;;2.20;1.20;;;;;;;7.66;78.28;99814.08;109667;1251;74915;-82
2024/02/06 09:58:18;;;;;;;2.90;1.20;;;;;;;7.62;78.39;99814.98;109594;1251;59100;-80
2024/02/06 10:00:46;;;;;;;4.40;1.30;;;;;;;7.62;80.44;99809.58;109688;1251;59429;-81
2024/02/06 10:03:17;;;;;;;4.40;1.40;;;;;;;7.68;78.71;99807.83;109697;1250;74594;-80
2024/02/06 10:05:46;;;;;;;3.10;1.20;;;;;;;7.72;79.45;99805.00;109517;1254;62305;-81
2024/02/06 10:08:17;;;;;;;3.70;1.20;;;;;;;7.76;76.77;99799.68;109618;1250;73356;-83
2024/02/06 10:11:20;;;;;;;4.30;1.00;;;;;;;7.72;76.74;99795.44;109649;1251;59436;-79
2024/02/06 10:14:00;;;;;;;4.70;1.40;;;;;;;7.72;76.11;99793.86;109568;1250;62704;-80
2024/02/06 10:16:29;;;;;;;3.60;1.70;;;;;;;7.74;76.59;99793.95;109698;1251;73725;-81
2024/02/06 10:22:50;;;;;;;5.10;1.90;;;;;;;7.69;76.23;99782.41;109248;1257;71043;-82
2024/02/06 10:26:07;;;;;;;4.10;1.80;;;;;;;7.67;76.15;99782.66;109163;1260;58086;-81
2024/02/06 10:28:36;;;;;;;6.10;1.70;;;;;;;7.62;77.75;99788.91;109248;1257;61172;-81
2024/02/06 10:31:11;;;;;;;8.60;2.10;;;;;;;7.60;77.13;99788.71;109160;1258;73687;-80
2024/02/06 10:33:40;;;;;;;9.80;3.20;;;;;;;7.56;77.77;99784.23;109222;1257;62306;-83
2024/02/06 10:36:09;;;;;;;7.70;2.30;;;;;;;7.56;78.25;99776.75;109135;1256;74727;-82
2024/02/06 10:38:37;;;;;;;7.70;2.40;;;;;;;7.58;78.46;99775.20;109200;1256;60506;-79
2024/02/06 10:41:08;;;;;;;5.70;1.60;;;;;;;7.63;77.46;99775.81;109148;1256;59330;-82
2024/02/06 10:44:00;;;;;;;5.10;2.60;;;;;;;7.68;76.98;99781.56;109177;1256;73186;-83
2024/02/06 10:46:39;;;;;;;5.60;1.50;;;;;;;7.75;76.52;99786.73;109038;1261;63569;-83
2024/02/06 10:49:07;;;;;;;4.70;1.90;;;;;;;7.77;76.24;99782.61;109152;1256;73454;-81
2024/02/06 10:51:35;;;;;;;8.30;3.10;;;;;;;7.80;75.62;99778.09;109102;1257;58193;-83
2024/02/06 10:54:07;;;;;;;6.70;2.70;;;;;;;7.73;74.93;99776.44;109110;1257;60794;-81
2024/02/06 10:56:36;;;;;;;7.40;2.20;;;;;;;7.68;75.90;99772.50;109267;1255;76265;-81
2024/02/06 10:59:04;;;;;;;7.80;2.40;;;;;;;7.67;76.64;99765.98;109442;1251;62986;-82
2024/02/06 11:01:37;;;;;;;6.60;2.60;;;;;;;7.61;76.08;99759.21;109668;1251;74016;-80
2024/02/06 11:04:08;;;;;;;5.10;2.00;;;;;;;7.53;76.59;99756.94;109622;1251;58763;-81
2024/02/06 11:06:50;;;;;;;6.40;2.30;;;;;;;7.44;76.61;99761.59;109650;1251;58760;-81
2024/02/06 11:09:19;;;;;;;5.00;2.40;;;;;;;7.32;77.17;99762.02;109633;1251;73006;-82
2024/02/06 11:11:47;;;;;;;4.50;2.20;;;;;;;7.27;77.82;99756.91;109643;1250;65874;-82
2024/02/06 11:14:15;;;;;;;7.50;3.30;;;;;;;7.27;79.18;99754.69;109703;1250;70396;-81
2024/02/06 11:16:54;;;;;;;7.00;2.70;;;;;;;7.33;77.99;99755.52;109675;1251;58164;-83
2024/02/06 11:19:53;;;;;;;4.80;2.10;;;;;;;7.34;77.99;99753.37;109682;1251;58767;-83
2024/02/06 11:22:31;;;;;;;9.10;3.40;;;;;;;7.29;79.53;99755.05;109680;1251;74360;-81
2024/02/06 11:24:59;;;;;;;3.50;1.40;;;;;;;7.22;78.40;99757.57;109666;1250;63076;-82
2024/02/06 11:27:27;;;;;;;6.50;1.80;;;;;;;7.17;78.80;99760.11;109777;1250;71618;-81
2024/02/06 11:29:55;;;;;;;5.90;2.40;;;;;;;7.15;77.16;99760.98;109636;1251;59176;-83
2024/02/06 11:32:22;;;;;;;15.10;3.90;;;;;;;7.10;75.62;99762.98;109682;1251;59234;-82
2024/02/06 11:34:54;;;;;;;22.90;6.40;;;;;;;7.03;75.35;99768.23;109713;1251;73879;-82
2024/02/06 11:37:26;;;;;;;11.70;5.50;;;;;;;6.92;74.86;99768.04;109643;1251;62709;-80
2024/02/06 11:40:25;;;;;;;13.10;6.50;;;;;;;6.79;76.27;99765.83;109735;1251;73912;-82
2024/02/06 11:43:06;;;;;;;14.90;6.50;;;;;;;6.71;77.73;99763.70;109198;1257;58152;-81
2024/02/06 11:45:35;;;;;;;11.20;5.70;;;;;;;6.64;77.88;99758.54;109144;1257;61096;-82